Terminal Aerodrome Forecast
Issued by NWS Medford, OR

Home | Current Version | Previous Version | Text Only | Print | Product List | Glossary On
Versions: 1 2 3 4 5 6 7 8 9 10 11 12 13 14 15 16 17 18 19 20 21 22 23 24 25
000
FTUS46 KMFR 201133
TAFMFR
TAF
KMFR 201133Z 2012/2112 VRB03KT P6SM VCSH OVC040
     FM201400 VRB03KT 3SM BR SCT003 OVC035
     FM201900 VRB03KT P6SM SCT025 BKN050
     FM210000 VRB05KT P6SM SCT070=

USA.gov is the U.S. government's official web portal to all federal, state and local government web resources and services.